sensor_id;sensor_type;location;lat;lon;timestamp;pressure;altitude;pressure_sealevel;temperature;humidity
53619;BME280;39505;53.040;18.488;2022-12-08T00:00:08;100345.25;;;1.49;100.00
53619;BME280;39505;53.040;18.488;2022-12-08T00:00:31;100346.94;;;1.50;100.00
53619;BME280;39505;53.040;18.488;2022-12-08T00:00:53;100339.13;;;1.48;100.00
53619;BME280;39505;53.040;18.488;2022-12-08T00:01:07;100346.94;;;1.50;100.00
53619;BME280;39505;53.040;18.488;2022-12-08T00:01:22;100352.22;;;1.50;100.00
53619;BME280;39505;53.040;18.488;2022-12-08T00:01:36;100344.31;;;1.50;100.00
53619;BME280;39505;53.040;18.488;2022-12-08T00:01:49;100346.09;;;1.49;100.00
53619;BME280;39505;53.040;18.488;2022-12-08T00:02:02;100348.69;;;1.51;100.00
53619;BME280;39505;53.040;18.488;2022-12-08T00:02:15;100343.38;;;1.51;100.00
53619;BME280;39505;53.040;18.488;2022-12-08T00:02:28;100349.53;;;1.51;100.00
53619;BME280;39505;53.040;18.488;2022-12-08T00:02:41;100348.69;;;1.51;100.00
53619;BME280;39505;53.040;18.488;2022-12-08T00:02:56;100346.03;;;1.51;100.00
53619;BME280;39505;53.040;18.488;2022-12-08T00:03:09;100353.97;;;1.51;100.00
53619;BME280;39505;53.040;18.488;2022-12-08T00:03:22;100349.59;;;1.50;100.00
53619;BME280;39505;53.040;18.488;2022-12-08T00:03:35;100348.81;;;1.48;100.00
53619;BME280;39505;53.040;18.488;2022-12-08T00:03:47;100343.53;;;1.48;100.00
53619;BME280;39505;53.040;18.488;2022-12-08T00:04:01;100342.69;;;1.47;100.00
53619;BME280;39505;53.040;18.488;2022-12-08T00:04:15;100343.53;;;1.48;100.00
53619;BME280;39505;53.040;18.488;2022-12-08T00:04:28;100343.53;;;1.48;100.00
53619;BME280;39505;53.040;18.488;2022-12-08T00:04:40;100350.53;;;1.49;100.00
53619;BME280;39505;53.040;18.488;2022-12-08T00:05:08;100347.13;;;1.47;100.00
53619;BME280;39505;53.040;18.488;2022-12-08T00:05:43;100347.13;;;1.47;100.00
53619;BME280;39505;53.040;18.488;2022-12-08T00:06:21;100346.19;;;1.48;100.00
53619;BME280;39505;53.040;18.488;2022-12-08T00:06:53;100348.81;;;1.48;100.00
53619;BME280;39505;53.040;18.488;2022-12-08T00:07:24;100349.78;;;1.47;100.00
53619;BME280;39505;53.040;18.488;2022-12-08T00:07:55;100349.78;;;1.47;100.00
53619;BME280;39505;53.040;18.488;2022-12-08T00:08:26;100351.56;;;1.46;100.00
53619;BME280;39505;53.040;18.488;2022-12-08T00:08:57;100353.44;;;1.44;100.00
53619;BME280;39505;53.040;18.488;2022-12-08T00:09:30;100349.00;;;1.45;100.00
53619;BME280;39505;53.040;18.488;2022-12-08T00:09:50;100345.59;;;1.43;100.00
53619;BME280;39505;53.040;18.488;2022-12-08T00:10:05;100350.88;;;1.43;100.00
53619;BME280;39505;53.040;18.488;2022-12-08T00:10:41;100352.59;;;1.44;100.00
53619;BME280;39505;53.040;18.488;2022-12-08T00:11:01;100353.53;;;1.43;100.00
53619;BME280;39505;53.040;18.488;2022-12-08T00:11:14;100350.88;;;1.43;100.00
53619;BME280;39505;53.040;18.488;2022-12-08T00:11:28;100343.91;;;1.42;100.00
53619;BME280;39505;53.040;18.488;2022-12-08T00:11:40;100353.53;;;1.43;100.00
53619;BME280;39505;53.040;18.488;2022-12-08T00:11:55;100351.81;;;1.42;100.00
53619;BME280;39505;53.040;18.488;2022-12-08T00:12:10;100351.81;;;1.42;100.00
53619;BME280;39505;53.040;18.488;2022-12-08T00:12:24;100347.47;;;1.40;100.00
53619;BME280;39505;53.040;18.488;2022-12-08T00:12:36;100354.47;;;1.42;100.00
53619;BME280;39505;53.040;18.488;2022-12-08T00:12:49;100347.47;;;1.40;100.00
53619;BME280;39505;53.040;18.488;2022-12-08T00:13:01;100347.47;;;1.40;100.00
53619;BME280;39505;53.040;18.488;2022-12-08T00:13:14;100347.47;;;1.40;100.00
53619;BME280;39505;53.040;18.488;2022-12-08T00:13:27;100351.81;;;1.42;100.00
53619;BME280;39505;53.040;18.488;2022-12-08T00:13:39;100356.22;;;1.41;100.00
53619;BME280;39505;53.040;18.488;2022-12-08T00:13:52;100357.13;;;1.42;100.00
53619;BME280;39505;53.040;18.488;2022-12-08T00:14:05;100351.06;;;1.39;100.00
53619;BME280;39505;53.040;18.488;2022-12-08T00:14:18;100354.53;;;1.40;100.00
53619;BME280;39505;53.040;18.488;2022-12-08T00:14:33;100358.97;;;1.39;100.00
53619;BME280;39505;53.040;18.488;2022-12-08T00:14:46;100352.75;;;1.40;100.00
53619;BME280;39505;53.040;18.488;2022-12-08T00:15:01;100352.75;;;1.40;100.00
53619;BME280;39505;53.040;18.488;2022-12-08T00:15:15;100354.53;;;1.40;100.00
53619;BME280;39505;53.040;18.488;2022-12-08T00:15:27;100356.22;;;1.41;100.00
53619;BME280;39505;53.040;18.488;2022-12-08T00:15:40;100352.75;;;1.40;100.00
53619;BME280;39505;53.040;18.488;2022-12-08T00:15:58;100357.19;;;1.40;100.00
53619;BME280;39505;53.040;18.488;2022-12-08T00:16:11;100354.63;;;1.38;100.00
53619;BME280;39505;53.040;18.488;2022-12-08T00:16:24;100358.09;;;1.39;100.00
53619;BME280;39505;53.040;18.488;2022-12-08T00:16:37;100357.19;;;1.40;100.00
53619;BME280;39505;53.040;18.488;2022-12-08T00:16:49;100353.69;;;1.39;100.00
53619;BME280;39505;53.040;18.488;2022-12-08T00:17:04;100352.81;;;1.39;100.00
53619;BME280;39505;53.040;18.488;2022-12-08T00:17:17;100356.41;;;1.38;100.00
53619;BME280;39505;53.040;18.488;2022-12-08T00:17:30;100354.63;;;1.38;100.00
53619;BME280;39505;53.040;18.488;2022-12-08T00:17:42;100352.94;;;1.37;100.00
53619;BME280;39505;53.040;18.488;2022-12-08T00:17:55;100363.38;;;1.39;100.00
53619;BME280;39505;53.040;18.488;2022-12-08T00:18:07;100356.34;;;1.39;100.00
53619;BME280;39505;53.040;18.488;2022-12-08T00:18:20;100356.34;;;1.39;100.00
53619;BME280;39505;53.040;18.488;2022-12-08T00:18:33;100358.03;;;1.40;100.00
53619;BME280;39505;53.040;18.488;2022-12-08T00:18:46;100357.25;;;1.38;100.00
53619;BME280;39505;53.040;18.488;2022-12-08T00:18:59;100352.94;;;1.37;100.00
53619;BME280;39505;53.040;18.488;2022-12-08T00:19:11;100355.47;;;1.39;100.00
53619;BME280;39505;53.040;18.488;2022-12-08T00:19:24;100356.41;;;1.38;100.00
53619;BME280;39505;53.040;18.488;2022-12-08T00:19:37;100360.84;;;1.37;100.00
53619;BME280;39505;53.040;18.488;2022-12-08T00:19:50;100357.34;;;1.37;100.00
53619;BME280;39505;53.040;18.488;2022-12-08T00:20:05;100353.84;;;1.36;100.00
53619;BME280;39505;53.040;18.488;2022-12-08T00:20:18;100359.13;;;1.36;100.00
53619;BME280;39505;53.040;18.488;2022-12-08T00:20:30;100360.09;;;1.35;100.00
53619;BME280;39505;53.040;18.488;2022-12-08T00:20:43;100366.22;;;1.36;100.00
53619;BME280;39505;53.040;18.488;2022-12-08T00:20:56;100360.09;;;1.35;100.00
53619;BME280;39505;53.040;18.488;2022-12-08T00:21:08;100360.94;;;1.36;100.00
53619;BME280;39505;53.040;18.488;2022-12-08T00:21:21;100361.78;;;1.36;100.00
53619;BME280;39505;53.040;18.488;2022-12-08T00:21:34;100368.78;;;1.37;100.00
53619;BME280;39505;53.040;18.488;2022-12-08T00:21:47;100367.06;;;1.36;100.00
53619;BME280;39505;53.040;18.488;2022-12-08T00:22:00;100361.88;;;1.35;100.00
53619;BME280;39505;53.040;18.488;2022-12-08T00:22:14;100359.25;;;1.35;100.00
53619;BME280;39505;53.040;18.488;2022-12-08T00:22:26;100365.38;;;1.35;100.00
53619;BME280;39505;53.040;18.488;2022-12-08T00:22:40;100361.94;;;1.33;100.00
53619;BME280;39505;53.040;18.488;2022-12-08T00:22:52;100368.06;;;1.34;100.00
53619;BME280;39505;53.040;18.488;2022-12-08T00:23:06;100368.06;;;1.34;100.00
53619;BME280;39505;53.040;18.488;2022-12-08T00:23:19;100368.06;;;1.34;100.00
53619;BME280;39505;53.040;18.488;2022-12-08T00:23:31;100369.09;;;1.31;100.00
53619;BME280;39505;53.040;18.488;2022-12-08T00:23:44;100370.78;;;1.32;100.00
53619;BME280;39505;53.040;18.488;2022-12-08T00:23:57;100365.63;;;1.31;100.00
53619;BME280;39505;53.040;18.488;2022-12-08T00:24:09;100368.16;;;1.32;100.00
53619;BME280;39505;53.040;18.488;2022-12-08T00:24:24;100373.34;;;1.34;100.00
53619;BME280;39505;53.040;18.488;2022-12-08T00:24:38;100365.50;;;1.32;100.00
53619;BME280;39505;53.040;18.488;2022-12-08T00:24:51;100371.66;;;1.33;100.00
53619;BME280;39505;53.040;18.488;2022-12-08T00:25:06;100372.53;;;1.33;100.00
53619;BME280;39505;53.040;18.488;2022-12-08T00:25:19;100369.03;;;1.33;100.00
53619;BME280;39505;53.040;18.488;2022-12-08T00:25:34;100370.78;;;1.32;100.00
53619;BME280;39505;53.040;18.488;2022-12-08T00:25:47;100369.94;;;1.32;100.00
53619;BME280;39505;53.040;18.488;2022-12-08T00:26:03;100371.56;;;1.34;100.00
53619;BME280;39505;53.040;18.488;2022-12-08T00:26:16;100368.16;;;1.32;100.00
53619;BME280;39505;53.040;18.488;2022-12-08T00:26:30;100367.22;;;1.33;100.00
53619;BME280;39505;53.040;18.488;2022-12-08T00:26:42;100367.22;;;1.33;100.00
53619;BME280;39505;53.040;18.488;2022-12-08T00:26:55;100368.94;;;1.34;100.00
53619;BME280;39505;53.040;18.488;2022-12-08T00:27:09;100366.38;;;1.33;100.00
53619;BME280;39505;53.040;18.488;2022-12-08T00:27:22;100376.06;;;1.32;100.00
53619;BME280;39505;53.040;18.488;2022-12-08T00:27:35;100369.94;;;1.32;100.00
53619;BME280;39505;53.040;18.488;2022-12-08T00:27:48;100371.66;;;1.33;100.00
53619;BME280;39505;53.040;18.488;2022-12-08T00:28:01;100374.22;;;1.34;100.00
53619;BME280;39505;53.040;18.488;2022-12-08T00:28:14;100378.56;;;1.35;100.00
53619;BME280;39505;53.040;18.488;2022-12-08T00:28:26;100365.38;;;1.35;100.00
53619;BME280;39505;53.040;18.488;2022-12-08T00:28:39;100369.69;;;1.36;100.00
53619;BME280;39505;53.040;18.488;2022-12-08T00:28:52;100370.66;;;1.35;100.00
53619;BME280;39505;53.040;18.488;2022-12-08T00:29:04;100374.97;;;1.36;100.00
53619;BME280;39505;53.040;18.488;2022-12-08T00:29:18;100374.22;;;1.34;100.00
53619;BME280;39505;53.040;18.488;2022-12-08T00:29:31;100368.94;;;1.34;100.00
53619;BME280;39505;53.040;18.488;2022-12-08T00:29:44;100368.94;;;1.34;100.00
53619;BME280;39505;53.040;18.488;2022-12-08T00:29:56;100374.22;;;1.34;100.00
53619;BME280;39505;53.040;18.488;2022-12-08T00:30:10;100369.81;;;1.35;100.00
53619;BME280;39505;53.040;18.488;2022-12-08T00:30:22;100363.66;;;1.34;100.00
53619;BME280;39505;53.040;18.488;2022-12-08T00:30:38;100370.66;;;1.35;100.00
53619;BME280;39505;53.040;18.488;2022-12-08T00:30:51;100363.66;;;1.34;100.00
53619;BME280;39505;53.040;18.488;2022-12-08T00:31:09;100371.56;;;1.34;100.00
53619;BME280;39505;53.040;18.488;2022-12-08T00:31:22;100370.66;;;1.35;100.00
53619;BME280;39505;53.040;18.488;2022-12-08T00:31:35;100365.38;;;1.35;100.00
53619;BME280;39505;53.040;18.488;2022-12-08T00:31:48;100369.69;;;1.36;100.00
53619;BME280;39505;53.040;18.488;2022-12-08T00:32:00;100372.25;;;1.38;100.00
53619;BME280;39505;53.040;18.488;2022-12-08T00:32:14;100368.78;;;1.37;100.00
53619;BME280;39505;53.040;18.488;2022-12-08T00:32:27;100371.41;;;1.37;100.00
53619;BME280;39505;53.040;18.488;2022-12-08T00:32:39;100369.69;;;1.36;100.00
53619;BME280;39505;53.040;18.488;2022-12-08T00:32:52;100374.97;;;1.36;100.00
53619;BME280;39505;53.040;18.488;2022-12-08T00:33:04;100370.53;;;1.37;100.00
53619;BME280;39505;53.040;18.488;2022-12-08T00:33:17;100375.75;;;1.38;100.00
53619;BME280;39505;53.040;18.488;2022-12-08T00:33:30;100370.47;;;1.38;100.00
53619;BME280;39505;53.040;18.488;2022-12-08T00:33:43;100373.09;;;1.38;100.00
53619;BME280;39505;53.040;18.488;2022-12-08T00:33:56;100368.78;;;1.37;100.00
53619;BME280;39505;53.040;18.488;2022-12-08T00:34:10;100384.63;;;1.37;100.00
53619;BME280;39505;53.040;18.488;2022-12-08T00:34:24;100370.53;;;1.37;100.00
53619;BME280;39505;53.040;18.488;2022-12-08T00:34:36;100375.75;;;1.38;100.00
53619;BME280;39505;53.040;18.488;2022-12-08T00:34:49;100371.31;;;1.39;100.00
53619;BME280;39505;53.040;18.488;2022-12-08T00:35:03;100374.06;;;1.37;100.00
53619;BME280;39505;53.040;18.488;2022-12-08T00:35:16;100381.03;;;1.38;100.00
53619;BME280;39505;53.040;18.488;2022-12-08T00:35:28;100380.19;;;1.38;100.00
53619;BME280;39505;53.040;18.488;2022-12-08T00:35:41;100372.19;;;1.39;100.00
53619;BME280;39505;53.040;18.488;2022-12-08T00:35:54;100380.97;;;1.40;100.00
53619;BME280;39505;53.040;18.488;2022-12-08T00:36:09;100377.47;;;1.39;100.00
53619;BME280;39505;53.040;18.488;2022-12-08T00:36:22;100374.84;;;1.39;100.00
53619;BME280;39505;53.040;18.488;2022-12-08T00:36:35;100372.19;;;1.39;100.00
53619;BME280;39505;53.040;18.488;2022-12-08T00:36:47;100378.38;;;1.38;100.00
53619;BME280;39505;53.040;18.488;2022-12-08T00:37:00;100382.75;;;1.39;100.00
53619;BME280;39505;53.040;18.488;2022-12-08T00:37:14;100373.19;;;1.37;100.00
53619;BME280;39505;53.040;18.488;2022-12-08T00:37:26;100375.75;;;1.38;100.00
53619;BME280;39505;53.040;18.488;2022-12-08T00:37:39;100379.25;;;1.39;100.00
53619;BME280;39505;53.040;18.488;2022-12-08T00:37:51;100376.59;;;1.39;100.00
53619;BME280;39505;53.040;18.488;2022-12-08T00:38:12;100377.47;;;1.39;100.00
53619;BME280;39505;53.040;18.488;2022-12-08T00:38:24;100372.19;;;1.39;100.00
53619;BME280;39505;53.040;18.488;2022-12-08T00:38:37;100376.59;;;1.39;100.00
53619;BME280;39505;53.040;18.488;2022-12-08T00:38:51;100375.75;;;1.38;100.00
53619;BME280;39505;53.040;18.488;2022-12-08T00:39:04;100379.16;;;1.40;100.00
53619;BME280;39505;53.040;18.488;2022-12-08T00:39:17;100379.16;;;1.40;100.00
53619;BME280;39505;53.040;18.488;2022-12-08T00:39:30;100380.13;;;1.39;100.00
53619;BME280;39505;53.040;18.488;2022-12-08T00:39:42;100375.69;;;1.40;100.00
53619;BME280;39505;53.040;18.488;2022-12-08T00:39:55;100382.75;;;1.39;100.00
53619;BME280;39505;53.040;18.488;2022-12-08T00:40:09;100376.59;;;1.39;100.00
53619;BME280;39505;53.040;18.488;2022-12-08T00:40:23;100382.75;;;1.39;100.00
53619;BME280;39505;53.040;18.488;2022-12-08T00:40:36;100382.75;;;1.39;100.00
53619;BME280;39505;53.040;18.488;2022-12-08T00:40:48;100374.91;;;1.38;100.00
53619;BME280;39505;53.040;18.488;2022-12-08T00:41:01;100380.00;;;1.41;100.00
53619;BME280;39505;53.040;18.488;2022-12-08T00:41:15;100379.16;;;1.40;100.00
53619;BME280;39505;53.040;18.488;2022-12-08T00:41:28;100375.69;;;1.40;100.00
53619;BME280;39505;53.040;18.488;2022-12-08T00:41:59;100377.47;;;1.39;100.00
53619;BME280;39505;53.040;18.488;2022-12-08T00:42:24;100374.84;;;1.39;100.00
53619;BME280;39505;53.040;18.488;2022-12-08T00:42:36;100379.16;;;1.40;100.00
53619;BME280;39505;53.040;18.488;2022-12-08T00:42:50;100378.25;;;1.42;100.00
53619;BME280;39505;53.040;18.488;2022-12-08T00:43:03;100378.31;;;1.40;100.00
53619;BME280;39505;53.040;18.488;2022-12-08T00:43:15;100376.59;;;1.39;100.00
53619;BME280;39505;53.040;18.488;2022-12-08T00:43:28;100377.47;;;1.39;100.00
53619;BME280;39505;53.040;18.488;2022-12-08T00:43:41;100380.19;;;1.38;100.00
53619;BME280;39505;53.040;18.488;2022-12-08T00:43:54;100378.31;;;1.40;100.00
53619;BME280;39505;53.040;18.488;2022-12-08T00:44:06;100381.88;;;1.39;100.00
53619;BME280;39505;53.040;18.488;2022-12-08T00:44:20;100374.72;;;1.41;100.00
53619;BME280;39505;53.040;18.488;2022-12-08T00:44:33;100373.03;;;1.40;100.00
53619;BME280;39505;53.040;18.488;2022-12-08T00:44:45;100378.31;;;1.40;100.00
53619;BME280;39505;53.040;18.488;2022-12-08T00:44:59;100373.09;;;1.38;100.00
53619;BME280;39505;53.040;18.488;2022-12-08T00:45:11;100375.75;;;1.38;100.00
53619;BME280;39505;53.040;18.488;2022-12-08T00:45:25;100375.75;;;1.38;100.00
53619;BME280;39505;53.040;18.488;2022-12-08T00:45:38;100375.75;;;1.38;100.00
53619;BME280;39505;53.040;18.488;2022-12-08T00:45:50;100378.38;;;1.38;100.00
53619;BME280;39505;53.040;18.488;2022-12-08T00:46:03;100375.75;;;1.38;100.00
53619;BME280;39505;53.040;18.488;2022-12-08T00:46:17;100378.38;;;1.38;100.00
53619;BME280;39505;53.040;18.488;2022-12-08T00:46:29;100381.03;;;1.38;100.00
53619;BME280;39505;53.040;18.488;2022-12-08T00:46:42;100373.19;;;1.37;100.00
53619;BME280;39505;53.040;18.488;2022-12-08T00:46:56;100382.75;;;1.39;100.00
53619;BME280;39505;53.040;18.488;2022-12-08T00:47:08;100381.88;;;1.39;100.00
53619;BME280;39505;53.040;18.488;2022-12-08T00:47:21;100375.69;;;1.40;100.00
53619;BME280;39505;53.040;18.488;2022-12-08T00:47:36;100381.81;;;1.40;100.00
53619;BME280;39505;53.040;18.488;2022-12-08T00:47:49;100377.47;;;1.39;100.00
53619;BME280;39505;53.040;18.488;2022-12-08T00:48:03;100379.16;;;1.40;100.00
53619;BME280;39505;53.040;18.488;2022-12-08T00:48:16;100384.44;;;1.40;100.00
53619;BME280;39505;53.040;18.488;2022-12-08T00:48:28;100380.13;;;1.39;100.00
53619;BME280;39505;53.040;18.488;2022-12-08T00:48:41;100376.59;;;1.39;100.00
53619;BME280;39505;53.040;18.488;2022-12-08T00:48:53;100385.41;;;1.39;100.00
53619;BME280;39505;53.040;18.488;2022-12-08T00:49:06;100380.13;;;1.39;100.00
53619;BME280;39505;53.040;18.488;2022-12-08T00:49:19;100378.31;;;1.40;100.00
53619;BME280;39505;53.040;18.488;2022-12-08T00:49:33;100384.44;;;1.40;100.00
53619;BME280;39505;53.040;18.488;2022-12-08T00:49:46;100376.59;;;1.39;100.00
53619;BME280;39505;53.040;18.488;2022-12-08T00:49:58;100386.31;;;1.38;100.00
53619;BME280;39505;53.040;18.488;2022-12-08T00:50:11;100388.03;;;1.39;100.00
53619;BME280;39505;53.040;18.488;2022-12-08T00:50:24;100381.03;;;1.38;100.00
53619;BME280;39505;53.040;18.488;2022-12-08T00:50:36;100378.38;;;1.38;100.00
53619;BME280;39505;53.040;18.488;2022-12-08T00:50:49;100381.03;;;1.38;100.00
53619;BME280;39505;53.040;18.488;2022-12-08T00:51:01;100382.84;;;1.38;100.00
53619;BME280;39505;53.040;18.488;2022-12-08T00:51:15;100388.97;;;1.38;100.00
53619;BME280;39505;53.040;18.488;2022-12-08T00:51:28;100385.47;;;1.38;100.00
53619;BME280;39505;53.040;18.488;2022-12-08T00:51:41;100376.69;;;1.37;100.00
53619;BME280;39505;53.040;18.488;2022-12-08T00:51:53;100381.03;;;1.38;100.00
53619;BME280;39505;53.040;18.488;2022-12-08T00:52:06;100380.19;;;1.38;100.00
53619;BME280;39505;53.040;18.488;2022-12-08T00:52:19;100390.75;;;1.38;100.00
53619;BME280;39505;53.040;18.488;2022-12-08T00:52:32;100381.09;;;1.37;100.00
53619;BME280;39505;53.040;18.488;2022-12-08T00:52:45;100386.31;;;1.38;100.00
53619;BME280;39505;53.040;18.488;2022-12-08T00:52:58;100388.19;;;1.36;100.00
53619;BME280;39505;53.040;18.488;2022-12-08T00:53:11;100380.25;;;1.36;100.00
53619;BME280;39505;53.040;18.488;2022-12-08T00:53:23;100376.78;;;1.36;100.00
53619;BME280;39505;53.040;18.488;2022-12-08T00:53:36;100375.94;;;1.35;100.00
53619;BME280;39505;53.040;18.488;2022-12-08T00:53:48;100383.09;;;1.33;100.00
53619;BME280;39505;53.040;18.488;2022-12-08T00:54:01;100380.38;;;1.35;100.00
53619;BME280;39505;53.040;18.488;2022-12-08T00:54:15;100383.84;;;1.35;100.00
53619;BME280;39505;53.040;18.488;2022-12-08T00:54:28;100386.50;;;1.35;100.00
53619;BME280;39505;53.040;18.488;2022-12-08T00:54:41;100385.72;;;1.33;100.00
53619;BME280;39505;53.040;18.488;2022-12-08T00:54:53;100387.41;;;1.34;100.00
53619;BME280;39505;53.040;18.488;2022-12-08T00:55:06;100385.66;;;1.35;100.00
53619;BME280;39505;53.040;18.488;2022-12-08T00:55:22;100383.94;;;1.34;100.00
53619;BME280;39505;53.040;18.488;2022-12-08T00:55:34;100384.88;;;1.33;100.00
53619;BME280;39505;53.040;18.488;2022-12-08T00:55:47;100384.00;;;1.32;100.00
53619;BME280;39505;53.040;18.488;2022-12-08T00:55:59;100385.78;;;1.32;100.00
53619;BME280;39505;53.040;18.488;2022-12-08T00:56:12;100384.00;;;1.32;100.00
53619;BME280;39505;53.040;18.488;2022-12-08T00:56:25;100389.38;;;1.31;100.00
53619;BME280;39505;53.040;18.488;2022-12-08T00:56:38;100389.38;;;1.31;100.00
53619;BME280;39505;53.040;18.488;2022-12-08T00:56:51;100387.59;;;1.31;100.00
53619;BME280;39505;53.040;18.488;2022-12-08T00:57:05;100396.34;;;1.32;100.00
53619;BME280;39505;53.040;18.488;2022-12-08T00:57:18;100397.19;;;1.32;100.00
53619;BME280;39505;53.040;18.488;2022-12-08T00:57:31;100389.38;;;1.31;100.00
53619;BME280;39505;53.040;18.488;2022-12-08T00:57:43;100392.88;;;1.31;100.00
53619;BME280;39505;53.040;18.488;2022-12-08T00:57:56;100391.91;;;1.32;100.00
53619;BME280;39505;53.040;18.488;2022-12-08T00:58:09;100389.28;;;1.32;100.00
53619;BME280;39505;53.040;18.488;2022-12-08T00:58:21;100396.28;;;1.33;100.00
53619;BME280;39505;53.040;18.488;2022-12-08T00:58:34;100390.16;;;1.33;100.00
53619;BME280;39505;53.040;18.488;2022-12-08T00:58:46;100392.88;;;1.31;100.00
53619;BME280;39505;53.040;18.488;2022-12-08T00:59:00;100392.03;;;1.31;100.00
53619;BME280;39505;53.040;18.488;2022-12-08T00:59:14;100400.88;;;1.30;100.00
53619;BME280;39505;53.040;18.488;2022-12-08T00:59:27;100400.78;;;1.31;100.00
53619;BME280;39505;53.040;18.488;2022-12-08T00:59:39;100398.16;;;1.31;100.00
53619;BME280;39505;53.040;18.488;2022-12-08T00:59:52;100395.44;;;1.33;100.00
53619;BME280;39505;53.040;18.488;2022-12-08T01:00:06;100393.66;;;1.33;100.00
53619;BME280;39505;53.040;18.488;2022-12-08T01:00:20;100391.06;;;1.32;100.00
53619;BME280;39505;53.040;18.488;2022-12-08T01:00:33;100394.66;;;1.31;100.00
53619;BME280;39505;53.040;18.488;2022-12-08T01:00:45;100396.34;;;1.32;100.00
53619;BME280;39505;53.040;18.488;2022-12-08T01:00:58;100399.06;;;1.30;100.00
53619;BME280;39505;53.040;18.488;2022-12-08T01:01:11;100391.16;;;1.30;100.00
53619;BME280;39505;53.040;18.488;2022-12-08T01:01:24;100391.06;;;1.32;100.00
53619;BME280;39505;53.040;18.488;2022-12-08T01:01:38;100396.44;;;1.30;100.00
53619;BME280;39505;53.040;18.488;2022-12-08T01:01:51;100392.94;;;1.30;100.00
53619;BME280;39505;53.040;18.488;2022-12-08T01:02:03;100389.47;;;1.29;100.00
53619;BME280;39505;53.040;18.488;2022-12-08T01:02:16;100390.38;;;1.28;100.00
53619;BME280;39505;53.040;18.488;2022-12-08T01:02:29;100396.44;;;1.30;100.00
53619;BME280;39505;53.040;18.488;2022-12-08T01:02:44;100400.94;;;1.28;100.00
53619;BME280;39505;53.040;18.488;2022-12-08T01:02:57;100397.38;;;1.29;100.00
53619;BME280;39505;53.040;18.488;2022-12-08T01:03:09;100392.94;;;1.30;100.00
53619;BME280;39505;53.040;18.488;2022-12-08T01:03:22;100394.66;;;1.31;100.00
53619;BME280;39505;53.040;18.488;2022-12-08T01:03:36;100396.44;;;1.30;100.00
53619;BME280;39505;53.040;18.488;2022-12-08T01:03:49;100400.88;;;1.30;100.00
53619;BME280;39505;53.040;18.488;2022-12-08T01:04:04;100392.94;;;1.30;100.00
53619;BME280;39505;53.040;18.488;2022-12-08T01:04:18;100394.50;;;1.34;100.00
53619;BME280;39505;53.040;18.488;2022-12-08T01:04:30;100393.66;;;1.33;100.00
53619;BME280;39505;53.040;18.488;2022-12-08T01:04:43;100387.53;;;1.33;100.00
53619;BME280;39505;53.040;18.488;2022-12-08T01:04:56;100389.28;;;1.32;100.00
53619;BME280;39505;53.040;18.488;2022-12-08T01:05:08;100401.63;;;1.32;100.00
53619;BME280;39505;53.040;18.488;2022-12-08T01:05:21;100387.53;;;1.33;100.00
53619;BME280;39505;53.040;18.488;2022-12-08T01:05:35;100391.06;;;1.32;100.00
53619;BME280;39505;53.040;18.488;2022-12-08T01:05:47;100392.88;;;1.31;100.00
53619;BME280;39505;53.040;18.488;2022-12-08T01:06:02;100391.06;;;1.32;100.00
53619;BME280;39505;53.040;18.488;2022-12-08T01:06:15;100392.81;;;1.33;100.00
53619;BME280;39505;53.040;18.488;2022-12-08T01:06:28;100391.91;;;1.32;100.00
53619;BME280;39505;53.040;18.488;2022-12-08T01:06:41;100398.16;;;1.31;100.00
53619;BME280;39505;53.040;18.488;2022-12-08T01:06:53;100391.16;;;1.30;100.00
53619;BME280;39505;53.040;18.488;2022-12-08T01:07:07;100395.50;;;1.31;100.00
53619;BME280;39505;53.040;18.488;2022-12-08T01:07:20;100392.94;;;1.30;100.00
53619;BME280;39505;53.040;18.488;2022-12-08T01:07:32;100399.06;;;1.30;100.00
53619;BME280;39505;53.040;18.488;2022-12-08T01:07:45;100388.50;;;1.30;100.00
53619;BME280;39505;53.040;18.488;2022-12-08T01:08:00;100396.44;;;1.30;100.00
53619;BME280;39505;53.040;18.488;2022-12-08T01:08:13;100396.44;;;1.30;100.00
53619;BME280;39505;53.040;18.488;2022-12-08T01:08:25;100395.50;;;1.31;100.00
53619;BME280;39505;53.040;18.488;2022-12-08T01:08:39;100387.53;;;1.33;100.00
53619;BME280;39505;53.040;18.488;2022-12-08T01:08:52;100391.00;;;1.33;100.00
53619;BME280;39505;53.040;18.488;2022-12-08T01:09:06;100394.56;;;1.32;100.00
53619;BME280;39505;53.040;18.488;2022-12-08T01:09:19;100391.06;;;1.32;100.00
53619;BME280;39505;53.040;18.488;2022-12-08T01:09:32;100383.94;;;1.34;100.00
53619;BME280;39505;53.040;18.488;2022-12-08T01:09:44;100390.16;;;1.33;100.00
53619;BME280;39505;53.040;18.488;2022-12-08T01:09:58;100396.28;;;1.33;100.00
53619;BME280;39505;53.040;18.488;2022-12-08T01:10:11;100390.16;;;1.33;100.00
53619;BME280;39505;53.040;18.488;2022-12-08T01:10:25;100391.00;;;1.33;100.00
53619;BME280;39505;53.040;18.488;2022-12-08T01:10:37;100394.50;;;1.34;100.00
53619;BME280;39505;53.040;18.488;2022-12-08T01:10:50;100388.28;;;1.35;100.00
53619;BME280;39505;53.040;18.488;2022-12-08T01:11:03;100397.91;;;1.36;100.00
53619;BME280;39505;53.040;18.488;2022-12-08T01:11:18;100388.28;;;1.35;100.00
53619;BME280;39505;53.040;18.488;2022-12-08T01:11:31;100396.22;;;1.35;100.00
53619;BME280;39505;53.040;18.488;2022-12-08T01:11:44;100397.97;;;1.34;100.00
53619;BME280;39505;53.040;18.488;2022-12-08T01:11:57;100391.78;;;1.35;100.00
53619;BME280;39505;53.040;18.488;2022-12-08T01:12:11;100394.41;;;1.35;100.00